Time;durP1;ratioP1;P1;durP2;ratioP2;P2;SDS_P1;SDS_P2;PMS_P1;PMS_P2;Temp;Humidity;BMP_temperature;BMP_pressure;BME280_temperature;BME280_humidity;BME280_pressure;Samples;Min_cycle;Max_cycle;Signal;HPM_P1;HPM_P2
2023/01/16 00:01:51;;;;;;;0.20;0.20;;;4.40;99.90;;;;;;5080022;28;20519;-77
2023/01/16 00:04:18;;;;;;;0.10;0.10;;;4.40;99.90;;;;;;5086876;28;20436;-77
2023/01/16 00:06:44;;;;;;;0.30;0.30;;;4.40;99.90;;;;;;5076537;28;20442;-77
2023/01/16 00:09:11;;;;;;;0.40;0.30;;;4.30;99.90;;;;;;5090318;28;20511;-77
2023/01/16 00:11:38;;;;;;;0.20;0.20;;;4.30;99.90;;;;;;5092548;28;20479;-77
2023/01/16 00:14:05;;;;;;;0.22;0.22;;;4.30;99.90;;;;;;5083647;28;20430;-76
2023/01/16 00:16:32;;;;;;;0.30;0.30;;;4.30;99.90;;;;;;5082341;28;20456;-77
2023/01/16 00:18:58;;;;;;;0.20;0.20;;;4.30;99.90;;;;;;5091638;28;20758;-78
2023/01/16 00:21:25;;;;;;;0.60;0.30;;;4.30;99.90;;;;;;5079442;28;20431;-77
2023/01/16 00:23:57;;;;;;;0.20;0.20;;;4.30;99.90;;;;;;5082636;28;20421;-77
2023/01/16 00:26:28;;;;;;;0.20;0.20;;;4.30;99.90;;;;;;5077838;28;20517;-77
2023/01/16 00:28:55;;;;;;;0.35;0.35;;;4.20;99.90;;;;;;5089343;28;20511;-77
2023/01/16 00:31:23;;;;;;;0.30;0.30;;;4.20;99.90;;;;;;5080346;28;21016;-77
2023/01/16 00:33:51;;;;;;;2.75;0.50;;;4.20;99.90;;;;;;5080664;28;21066;-78
2023/01/16 00:36:17;;;;;;;0.10;0.10;;;4.20;99.90;;;;;;5081463;28;20427;-77
2023/01/16 00:38:44;;;;;;;0.10;0.10;;;4.20;99.90;;;;;;5086091;28;20423;-78
2023/01/16 00:41:14;;;;;;;0.30;0.30;;;4.20;99.90;;;;;;5096793;28;20424;-77
2023/01/16 00:43:41;;;;;;;0.20;0.20;;;4.20;99.90;;;;;;5083955;28;20427;-77
2023/01/16 00:46:08;;;;;;;0.22;0.22;;;4.10;99.90;;;;;;5091599;28;20910;-78
2023/01/16 00:48:35;;;;;;;0.40;0.40;;;4.10;99.90;;;;;;5086967;28;20430;-78
2023/01/16 00:51:01;;;;;;;0.10;0.10;;;4.00;99.90;;;;;;5082781;28;20507;-78
2023/01/16 00:53:28;;;;;;;0.45;0.20;;;4.00;99.90;;;;;;5070999;28;20432;-78
2023/01/16 00:55:55;;;;;;;0.10;0.10;;;3.90;99.90;;;;;;5078339;28;20435;-78
2023/01/16 00:58:21;;;;;;;0.50;0.50;;;3.90;99.90;;;;;;5073184;28;20787;-78
2023/01/16 01:01:06;;;;;;;1.00;0.20;;;3.80;99.90;;;;;;5077108;28;20440;-77
2023/01/16 01:03:32;;;;;;;0.20;0.20;;;3.70;99.90;;;;;;5070019;28;20506;-78
2023/01/16 01:05:59;;;;;;;0.40;0.30;;;3.70;99.90;;;;;;5084134;28;20432;-77
2023/01/16 01:08:26;;;;;;;0.28;0.28;;;3.70;99.90;;;;;;5077030;28;20438;-78
2023/01/16 01:10:52;;;;;;;0.90;0.20;;;3.70;99.90;;;;;;5087385;28;20433;-77
2023/01/16 01:13:27;;;;;;;0.10;0.10;;;3.70;99.90;;;;;;5074676;28;20773;-77
2023/01/16 01:15:54;;;;;;;0.90;0.60;;;3.70;99.90;;;;;;5088849;28;21055;-77
2023/01/16 01:18:20;;;;;;;0.30;0.30;;;3.80;99.90;;;;;;5076657;28;20431;-78
2023/01/16 01:20:47;;;;;;;0.30;0.30;;;3.80;99.90;;;;;;5079599;28;21089;-77
2023/01/16 01:23:17;;;;;;;0.30;0.30;;;3.80;99.90;;;;;;5083571;28;20429;-78
2023/01/16 01:25:43;;;;;;;0.40;0.40;;;3.80;99.90;;;;;;5082931;28;20431;-78
2023/01/16 01:28:10;;;;;;;0.10;0.10;;;3.80;99.90;;;;;;5098204;28;20435;-78
2023/01/16 01:30:37;;;;;;;0.20;0.20;;;3.80;99.90;;;;;;5098184;28;20436;-77
2023/01/16 01:33:09;;;;;;;1.30;0.30;;;3.70;99.90;;;;;;5076675;28;20423;-78
2023/01/16 01:35:36;;;;;;;0.38;0.38;;;3.80;99.90;;;;;;5090888;28;20429;-78
2023/01/16 01:38:04;;;;;;;0.20;0.20;;;3.80;99.90;;;;;;5093358;28;20433;-77
2023/01/16 01:40:32;;;;;;;0.20;0.20;;;3.90;99.90;;;;;;5085850;28;20906;-77
2023/01/16 01:42:59;;;;;;;2.50;0.70;;;3.90;99.90;;;;;;5093608;28;20436;-78
2023/01/16 01:45:28;;;;;;;0.25;0.25;;;4.00;99.90;;;;;;5092149;28;20438;-78
2023/01/16 01:48:15;;;;;;;0.30;0.30;;;4.00;99.90;;;;;;5075533;28;20805;-77
2023/01/16 01:50:49;;;;;;;0.28;0.28;;;4.00;99.90;;;;;;5089723;28;20925;-78
2023/01/16 01:53:46;;;;;;;0.40;0.40;;;4.00;99.90;;;;;;5087725;28;20973;-78
2023/01/16 01:56:41;;;;;;;0.30;0.30;;;4.00;99.90;;;;;;5091782;28;20426;-78
2023/01/16 01:59:17;;;;;;;0.30;0.30;;;4.00;99.90;;;;;;5082438;28;20418;-78
2023/01/16 02:01:44;;;;;;;0.30;0.30;;;4.00;99.90;;;;;;5083497;28;20425;-78
2023/01/16 02:04:18;;;;;;;0.20;0.20;;;4.00;99.90;;;;;;5085612;28;20461;-76
2023/01/16 02:06:51;;;;;;;0.30;0.30;;;4.00;99.90;;;;;;5087916;28;20431;-78
2023/01/16 02:09:25;;;;;;;0.20;0.20;;;4.00;99.90;;;;;;5087867;28;20927;-78
2023/01/16 02:12:00;;;;;;;4.40;0.40;;;4.00;99.90;;;;;;5085138;28;20909;-77
2023/01/16 02:14:30;;;;;;;0.10;0.10;;;4.10;99.90;;;;;;5096571;28;20427;-77
2023/01/16 02:20:08;;;;;;;0.20;0.20;;;4.10;99.90;;;;;;5087369;28;20428;-78
2023/01/16 02:23:02;;;;;;;0.20;0.20;;;4.10;99.90;;;;;;5079264;28;20434;-78
2023/01/16 02:25:47;;;;;;;0.27;0.27;;;4.00;99.90;;;;;;5092838;28;20440;-78
2023/01/16 02:28:17;;;;;;;0.50;0.30;;;4.00;99.90;;;;;;5084914;28;20433;-78
2023/01/16 02:30:58;;;;;;;0.32;0.32;;;4.00;99.90;;;;;;5085506;28;20459;-77
2023/01/16 02:33:34;;;;;;;0.20;0.20;;;4.00;99.90;;;;;;5072982;28;20434;-78
2023/01/16 02:36:28;;;;;;;1.90;0.60;;;4.00;99.90;;;;;;5085056;28;20428;-77
2023/01/16 02:39:25;;;;;;;0.40;0.25;;;3.90;99.90;;;;;;5082423;28;20435;-77
2023/01/16 02:42:12;;;;;;;0.20;0.20;;;3.90;99.90;;;;;;5084071;28;20892;-77
2023/01/16 02:44:55;;;;;;;0.40;0.40;;;3.90;99.90;;;;;;5079276;28;20431;-77
2023/01/16 02:47:39;;;;;;;0.30;0.30;;;3.80;99.90;;;;;;5085398;28;20433;-77
2023/01/16 02:50:43;;;;;;;0.20;0.20;;;3.80;99.90;;;;;;5094627;28;20457;-77
2023/01/16 02:53:25;;;;;;;0.10;0.10;;;3.80;99.90;;;;;;5092120;28;20428;-77
2023/01/16 02:55:54;;;;;;;0.20;0.20;;;3.80;99.90;;;;;;5076592;28;20438;-77
2023/01/16 02:58:22;;;;;;;0.20;0.20;;;3.70;99.90;;;;;;5081613;28;20910;-77
2023/01/16 03:00:55;;;;;;;0.10;0.10;;;3.60;99.90;;;;;;5080258;28;20426;-78
2023/01/16 03:03:51;;;;;;;0.10;0.10;;;3.60;99.90;;;;;;5083607;28;20911;-77
2023/01/16 03:06:49;;;;;;;0.10;0.10;;;3.50;99.90;;;;;;5081181;28;20485;-77
2023/01/16 03:09:47;;;;;;;0.15;0.15;;;3.50;99.90;;;;;;5087402;28;20932;-78
2023/01/16 03:12:17;;;;;;;0.30;0.20;;;3.50;99.90;;;;;;5076859;28;20440;-78
2023/01/16 03:14:57;;;;;;;0.50;0.50;;;3.50;99.90;;;;;;5079580;28;21103;-76
2023/01/16 03:17:42;;;;;;;0.50;0.50;;;3.60;99.90;;;;;;5103003;28;20456;-77
2023/01/16 03:20:25;;;;;;;0.10;0.10;;;3.70;99.90;;;;;;5085229;28;20925;-77
2023/01/16 03:22:54;;;;;;;0.30;0.30;;;3.80;99.90;;;;;;5089445;28;20430;-77
2023/01/16 03:25:31;;;;;;;0.10;0.10;;;3.80;99.90;;;;;;5092229;28;20434;-78
2023/01/16 03:28:01;;;;;;;0.20;0.20;;;3.80;99.90;;;;;;5078474;28;20920;-78
2023/01/16 03:30:51;;;;;;;1.00;0.22;;;3.80;99.90;;;;;;5085137;28;20508;-78
2023/01/16 03:34:02;;;;;;;0.15;0.15;;;3.90;99.90;;;;;;5093803;28;20457;-78
2023/01/16 03:36:44;;;;;;;0.15;0.15;;;3.80;99.90;;;;;;5027018;28;20425;-78
2023/01/16 03:39:24;;;;;;;0.20;0.20;;;3.80;99.90;;;;;;5041845;28;20425;-77
2023/01/16 03:41:53;;;;;;;3.80;0.40;;;3.70;99.90;;;;;;5039104;28;20444;-77
2023/01/16 03:44:29;;;;;;;0.28;0.28;;;3.60;99.90;;;;;;5051985;28;20813;-78
2023/01/16 03:47:00;;;;;;;0.10;0.10;;;3.50;99.90;;;;;;5048556;28;20543;-79
2023/01/16 03:49:42;;;;;;;0.20;0.20;;;3.40;99.90;;;;;;5024592;28;20517;-78
2023/01/16 03:52:13;;;;;;;0.20;0.20;;;3.30;99.90;;;;;;5048362;28;20932;-77
2023/01/16 03:54:58;;;;;;;0.20;0.20;;;3.20;99.90;;;;;;5056163;28;20433;-78
2023/01/16 03:57:29;;;;;;;0.20;0.20;;;3.20;99.90;;;;;;5045457;28;20495;-78
2023/01/16 03:59:56;;;;;;;0.40;0.40;;;3.10;99.90;;;;;;5045176;28;20969;-77
2023/01/16 04:02:34;;;;;;;0.30;0.30;;;3.00;99.90;;;;;;5037008;28;20504;-78
2023/01/16 04:05:28;;;;;;;0.20;0.20;;;3.00;99.90;;;;;;5048660;28;20427;-78
2023/01/16 04:08:00;;;;;;;0.40;0.40;;;2.90;99.90;;;;;;5037609;28;20439;-79
2023/01/16 04:10:33;;;;;;;0.20;0.20;;;2.90;99.90;;;;;;5045750;28;20430;-78
2023/01/16 04:13:13;;;;;;;0.10;0.10;;;2.80;99.90;;;;;;5091173;28;20978;-78
2023/01/16 04:15:46;;;;;;;0.30;0.30;;;2.70;99.90;;;;;;5073449;28;20431;-78
2023/01/16 04:18:13;;;;;;;0.20;0.20;;;2.70;99.90;;;;;;5079330;28;20458;-78
2023/01/16 04:20:44;;;;;;;0.20;0.20;;;2.70;99.90;;;;;;5084371;28;20933;-78
2023/01/16 04:23:12;;;;;;;0.20;0.20;;;2.70;99.90;;;;;;5081352;28;20433;-78
2023/01/16 04:25:39;;;;;;;0.50;0.50;;;2.70;99.90;;;;;;5076248;28;20876;-78
2023/01/16 04:28:09;;;;;;;0.30;0.30;;;2.70;99.90;;;;;;5080023;28;20435;-78
2023/01/16 04:30:37;;;;;;;0.55;0.55;;;2.80;99.90;;;;;;5086309;28;20425;-78
2023/01/16 04:33:04;;;;;;;0.20;0.20;;;2.80;99.90;;;;;;5075619;28;20463;-78
2023/01/16 04:35:32;;;;;;;0.30;0.30;;;2.80;99.90;;;;;;5072495;28;20451;-78
2023/01/16 04:37:59;;;;;;;0.70;0.20;;;2.80;99.90;;;;;;5085051;28;20508;-78
2023/01/16 04:40:26;;;;;;;0.25;0.25;;;2.90;99.90;;;;;;5083690;28;20429;-78
2023/01/16 04:42:54;;;;;;;0.20;0.20;;;2.90;99.90;;;;;;5073815;28;20431;-76
2023/01/16 04:45:21;;;;;;;0.25;0.25;;;3.00;99.90;;;;;;5084341;28;20440;-78
2023/01/16 04:47:52;;;;;;;0.20;0.20;;;3.10;99.90;;;;;;5075934;28;20431;-79
2023/01/16 04:50:19;;;;;;;0.50;0.40;;;3.10;99.90;;;;;;5085864;28;20434;-78
2023/01/16 04:52:46;;;;;;;0.20;0.20;;;3.10;99.90;;;;;;5086948;28;20421;-78
2023/01/16 04:55:13;;;;;;;0.30;0.30;;;3.10;99.90;;;;;;5076311;28;20458;-78
2023/01/16 04:57:40;;;;;;;0.80;0.50;;;3.10;99.90;;;;;;5073612;28;20431;-78
2023/01/16 05:00:09;;;;;;;0.80;0.25;;;3.10;99.90;;;;;;5084458;28;20789;-78
2023/01/16 05:02:36;;;;;;;0.40;0.40;;;3.00;99.90;;;;;;5080148;28;20779;-77
2023/01/16 05:05:03;;;;;;;0.40;0.40;;;3.00;99.90;;;;;;5083119;28;20514;-78
2023/01/16 05:07:30;;;;;;;0.20;0.20;;;2.90;99.90;;;;;;5073923;28;20431;-77
2023/01/16 05:09:59;;;;;;;0.10;0.10;;;2.80;99.90;;;;;;5095311;28;20462;-78
2023/01/16 05:12:25;;;;;;;0.10;0.10;;;2.90;99.90;;;;;;5075661;28;20427;-79
2023/01/16 05:14:52;;;;;;;0.20;0.20;;;2.90;99.90;;;;;;5087692;28;20962;-79
2023/01/16 05:17:24;;;;;;;0.20;0.20;;;3.00;99.90;;;;;;5095992;28;20430;-78
2023/01/16 05:19:51;;;;;;;1.00;0.30;;;3.10;99.90;;;;;;5085043;28;20433;-78
2023/01/16 05:22:18;;;;;;;1.80;0.43;;;3.20;99.90;;;;;;5076314;28;20432;-79
2023/01/16 05:24:46;;;;;;;0.50;0.50;;;3.10;99.90;;;;;;5080547;28;21763;-78
2023/01/16 05:27:13;;;;;;;0.40;0.30;;;3.00;99.90;;;;;;5086409;28;20530;-78
2023/01/16 05:29:39;;;;;;;0.20;0.20;;;3.00;99.90;;;;;;5081119;28;20994;-78
2023/01/16 05:32:06;;;;;;;0.47;0.33;;;2.90;99.90;;;;;;5087467;28;20433;-78
2023/01/16 05:34:33;;;;;;;0.25;0.25;;;2.80;99.90;;;;;;5088524;28;20433;-78
2023/01/16 05:37:00;;;;;;;0.50;0.50;;;2.80;99.90;;;;;;5092194;28;20429;-78
2023/01/16 05:39:27;;;;;;;1.30;0.70;;;2.80;99.90;;;;;;5089935;28;20539;-78
2023/01/16 05:41:53;;;;;;;0.17;0.17;;;2.70;99.90;;;;;;5081979;28;20435;-78
2023/01/16 05:44:21;;;;;;;2.40;0.40;;;2.70;99.90;;;;;;5091378;28;20433;-78
2023/01/16 05:46:50;;;;;;;0.20;0.20;;;2.70;99.90;;;;;;5085022;28;20433;-79
2023/01/16 05:49:17;;;;;;;0.35;0.28;;;2.70;99.90;;;;;;5090743;28;20521;-79
2023/01/16 05:51:44;;;;;;;3.00;0.30;;;2.60;99.90;;;;;;5076679;28;20435;-79
2023/01/16 05:54:13;;;;;;;0.20;0.20;;;2.70;99.90;;;;;;5076472;28;20981;-78
2023/01/16 05:56:43;;;;;;;0.20;0.20;;;2.70;99.90;;;;;;5099338;28;20509;-78
2023/01/16 05:59:10;;;;;;;0.20;0.20;;;2.80;99.90;;;;;;5086566;28;20474;-78
2023/01/16 06:01:44;;;;;;;0.20;0.20;;;2.90;99.90;;;;;;5081986;28;20797;-78
2023/01/16 06:04:11;;;;;;;0.20;0.20;;;2.90;99.90;;;;;;5076490;28;20942;-79
2023/01/16 06:06:37;;;;;;;0.20;0.20;;;2.90;99.90;;;;;;5074820;28;20431;-78
2023/01/16 06:09:06;;;;;;;3.30;0.50;;;2.80;99.90;;;;;;5103376;28;20482;-78
2023/01/16 06:11:33;;;;;;;0.30;0.30;;;2.90;99.90;;;;;;5103175;28;20500;-74
2023/01/16 06:14:04;;;;;;;0.40;0.40;;;2.90;99.90;;;;;;5075830;28;20995;-74
2023/01/16 06:16:31;;;;;;;0.20;0.20;;;2.90;99.90;;;;;;5092288;28;20518;-74
2023/01/16 06:18:58;;;;;;;0.10;0.10;;;3.00;99.90;;;;;;5082214;28;20436;-74
2023/01/16 06:21:25;;;;;;;0.10;0.10;;;3.00;99.90;;;;;;5089611;28;20521;-74
2023/01/16 06:23:52;;;;;;;0.20;0.20;;;3.00;99.90;;;;;;5075253;28;20890;-74
2023/01/16 06:26:21;;;;;;;0.50;0.50;;;3.00;99.90;;;;;;5076291;28;20445;-74
2023/01/16 06:28:48;;;;;;;0.30;0.30;;;3.00;99.90;;;;;;5087323;28;20432;-74
2023/01/16 06:31:15;;;;;;;0.10;0.10;;;2.90;99.90;;;;;;5090778;28;20434;-74
2023/01/16 06:33:42;;;;;;;0.10;0.10;;;2.90;99.90;;;;;;5087113;28;20422;-74
2023/01/16 06:36:09;;;;;;;0.15;0.15;;;2.90;99.90;;;;;;5095692;28;20461;-74
2023/01/16 06:38:35;;;;;;;0.20;0.20;;;2.90;99.90;;;;;;5085330;28;20425;-74
2023/01/16 06:41:02;;;;;;;0.17;0.17;;;2.80;99.90;;;;;;5080988;28;20429;-74
2023/01/16 06:43:29;;;;;;;0.30;0.30;;;2.80;99.90;;;;;;5081458;28;20426;-74
2023/01/16 06:45:56;;;;;;;0.60;0.43;;;2.70;99.90;;;;;;5094399;28;20435;-74
2023/01/16 06:48:25;;;;;;;0.30;0.30;;;2.60;99.90;;;;;;5085145;28;20426;-73
2023/01/16 06:50:53;;;;;;;0.20;0.20;;;2.60;99.90;;;;;;5083001;28;20534;-73
2023/01/16 06:53:20;;;;;;;0.25;0.25;;;2.50;99.90;;;;;;5086704;28;20432;-74
2023/01/16 06:55:47;;;;;;;2.70;0.40;;;2.40;99.90;;;;;;5060797;28;20515;-74
2023/01/16 06:58:13;;;;;;;1.60;0.20;;;2.50;99.90;;;;;;5066861;28;20635;-74
2023/01/16 07:00:41;;;;;;;0.20;0.20;;;2.40;99.90;;;;;;5079004;28;20423;-74
2023/01/16 07:03:09;;;;;;;0.50;0.50;;;2.30;99.90;;;;;;5078447;28;20422;-74
2023/01/16 07:05:35;;;;;;;0.20;0.20;;;2.30;99.90;;;;;;5081054;28;20425;-75
2023/01/16 07:08:02;;;;;;;0.20;0.20;;;2.40;99.90;;;;;;5085329;28;20422;-74
2023/01/16 07:10:29;;;;;;;2.60;0.30;;;2.50;99.90;;;;;;5074633;28;20428;-74
2023/01/16 07:12:56;;;;;;;0.20;0.20;;;2.60;99.90;;;;;;5083953;28;20949;-75
2023/01/16 07:24:05;;;;;;;0.22;0.22;;;3.00;99.90;;;;;;5082574;28;20496;-74
2023/01/16 07:26:34;;;;;;;1.50;0.90;;;3.00;99.90;;;;;;5078140;28;20432;-75
2023/01/16 07:29:02;;;;;;;0.70;0.60;;;3.10;99.90;;;;;;5087201;28;20471;-75
2023/01/16 07:31:31;;;;;;;0.20;0.20;;;3.30;99.90;;;;;;5088280;28;20516;-75
2023/01/16 07:33:58;;;;;;;0.10;0.10;;;3.50;99.90;;;;;;5090553;28;20425;-74
2023/01/16 07:36:25;;;;;;;0.30;0.20;;;3.70;99.90;;;;;;5090586;28;20946;-74
2023/01/16 07:38:52;;;;;;;0.10;0.10;;;3.80;99.90;;;;;;5075939;28;20430;-75
2023/01/16 07:41:18;;;;;;;0.10;0.10;;;3.80;99.90;;;;;;5084908;28;20459;-75
2023/01/16 07:43:45;;;;;;;3.85;0.70;;;3.90;99.90;;;;;;5084601;28;20942;-75
2023/01/16 07:46:12;;;;;;;0.20;0.20;;;3.90;99.90;;;;;;5081891;28;20437;-75
2023/01/16 07:48:39;;;;;;;0.50;0.20;;;3.90;99.90;;;;;;5088199;28;20429;-75
2023/01/16 07:51:05;;;;;;;0.20;0.20;;;3.90;99.90;;;;;;5077075;28;20439;-75
2023/01/16 07:53:32;;;;;;;0.30;0.30;;;3.90;99.90;;;;;;5069466;28;20423;-75
2023/01/16 07:56:00;;;;;;;0.30;0.30;;;4.10;99.90;;;;;;5078842;28;20463;-74
2023/01/16 07:58:29;;;;;;;0.30;0.30;;;4.10;99.90;;;;;;5071051;28;21095;-74
2023/01/16 08:00:58;;;;;;;0.30;0.30;;;4.20;99.90;;;;;;5074564;28;20431;-74
2023/01/16 08:03:26;;;;;;;0.27;0.27;;;4.20;99.90;;;;;;5082176;28;20426;-75
2023/01/16 08:05:59;;;;;;;0.30;0.30;;;4.30;99.90;;;;;;5080761;28;20459;-75
2023/01/16 08:08:30;;;;;;;0.50;0.50;;;4.40;99.90;;;;;;5084330;28;20432;-75
2023/01/16 08:11:34;;;;;;;0.20;0.20;;;4.40;99.90;;;;;;5076097;28;20459;-75
2023/01/16 08:13:46;;;;;;;1.33;0.28;;;4.50;99.90;;;;;;5089579;28;20972;-75
2023/01/16 08:16:13;;;;;;;0.20;0.20;;;4.50;99.90;;;;;;5085394;28;20449;-75
2023/01/16 08:18:40;;;;;;;5.70;0.30;;;4.50;99.90;;;;;;5077320;28;20446;-73
2023/01/16 08:21:07;;;;;;;0.40;0.40;;;4.50;99.90;;;;;;5077521;28;20505;-74
2023/01/16 08:23:33;;;;;;;0.30;0.30;;;4.50;99.90;;;;;;5078922;28;20428;-74
2023/01/16 08:26:00;;;;;;;0.20;0.20;;;4.50;99.90;;;;;;5081016;28;20441;-74
2023/01/16 08:28:27;;;;;;;0.30;0.30;;;4.50;99.90;;;;;;5083647;28;20423;-75
2023/01/16 08:30:54;;;;;;;0.22;0.22;;;4.50;99.90;;;;;;5083108;28;20417;-75
2023/01/16 08:33:21;;;;;;;1.25;0.25;;;4.60;99.90;;;;;;5082633;28;20426;-75
2023/01/16 08:35:47;;;;;;;0.30;0.30;;;4.70;99.90;;;;;;5082116;28;20428;-75
2023/01/16 08:38:14;;;;;;;0.20;0.20;;;4.70;99.90;;;;;;5103813;28;20428;-74
2023/01/16 08:40:41;;;;;;;0.20;0.20;;;4.80;99.90;;;;;;5075821;28;20515;-75
2023/01/16 08:51:28;;;;;;;0.28;0.28;;;5.00;99.90;;;;;;5068152;28;20436;-74
2023/01/16 08:53:56;;;;;;;0.10;0.10;;;5.00;99.90;;;;;;5080387;28;20509;-75
2023/01/16 08:56:23;;;;;;;3.50;0.20;;;5.00;99.90;;;;;;5080395;28;20424;-74
2023/01/16 08:58:50;;;;;;;0.17;0.17;;;5.00;99.90;;;;;;5074106;28;20854;-74
2023/01/16 09:01:17;;;;;;;0.57;0.28;;;5.00;99.90;;;;;;5079044;28;20432;-74
2023/01/16 09:03:45;;;;;;;0.20;0.20;;;5.10;99.90;;;;;;5079478;28;20422;-74
2023/01/16 09:06:12;;;;;;;0.10;0.10;;;5.00;99.90;;;;;;5074254;28;20421;-74
2023/01/16 09:08:39;;;;;;;0.13;0.13;;;4.90;99.90;;;;;;5066235;28;20792;-74
2023/01/16 09:13:51;;;;;;;0.20;0.20;;;4.80;99.90;;;;;;5082909;28;20464;-74
2023/01/16 09:16:23;;;;;;;0.10;0.10;;;4.80;99.90;;;;;;5072388;28;20438;-74
2023/01/16 09:18:51;;;;;;;0.20;0.20;;;4.70;99.90;;;;;;5073958;28;20457;-75
2023/01/16 09:21:22;;;;;;;3.50;0.30;;;4.70;99.90;;;;;;5063162;28;20435;-74
2023/01/16 09:23:49;;;;;;;0.22;0.22;;;4.70;99.90;;;;;;5068886;28;20432;-74
2023/01/16 09:26:18;;;;;;;0.20;0.20;;;4.60;99.90;;;;;;5069062;28;20440;-75
2023/01/16 09:28:44;;;;;;;0.20;0.20;;;4.60;99.90;;;;;;5079982;28;20439;-75
2023/01/16 09:31:11;;;;;;;0.20;0.20;;;4.50;99.90;;;;;;5074859;28;20429;-75
2023/01/16 09:33:38;;;;;;;0.40;0.40;;;4.50;99.90;;;;;;5071605;28;20496;-74
2023/01/16 09:36:05;;;;;;;0.20;0.20;;;4.50;99.90;;;;;;5073655;28;20432;-74
2023/01/16 09:38:33;;;;;;;0.50;0.50;;;4.50;99.90;;;;;;5076314;28;20798;-74
2023/01/16 09:41:02;;;;;;;0.20;0.20;;;4.50;99.90;;;;;;5085683;28;20510;-74
2023/01/16 09:43:35;;;;;;;0.30;0.30;;;4.40;99.90;;;;;;5084145;28;20425;-74
2023/01/16 09:46:25;;;;;;;0.10;0.10;;;4.40;99.90;;;;;;5074662;28;20429;-74
2023/01/16 09:48:55;;;;;;;0.30;0.30;;;4.40;99.90;;;;;;5079534;28;20517;-74
2023/01/16 10:00:29;;;;;;;0.30;0.30;;;4.20;99.90;;;;;;5078563;28;20420;-74
2023/01/16 10:02:56;;;;;;;0.20;0.20;;;4.10;99.90;;;;;;5085606;28;20433;-74
2023/01/16 10:05:34;;;;;;;0.30;0.30;;;4.10;99.90;;;;;;5080164;28;20437;-74
2023/01/16 10:08:34;;;;;;;0.20;0.20;;;4.00;99.90;;;;;;5086253;28;20583;-74
2023/01/16 10:11:09;;;;;;;0.30;0.30;;;4.00;99.90;;;;;;5081324;28;20446;-74
2023/01/16 10:14:10;;;;;;;0.20;0.20;;;3.90;99.90;;;;;;5078763;28;20504;-74
2023/01/16 10:17:06;;;;;;;0.40;0.40;;;3.90;99.90;;;;;;5077568;28;20426;-74
2023/01/16 10:20:00;;;;;;;0.10;0.10;;;3.90;99.90;;;;;;5085262;28;20432;-74
2023/01/16 10:23:08;;;;;;;0.22;0.22;;;3.90;99.90;;;;;;5082490;28;20914;-74
2023/01/16 10:25:48;;;;;;;0.20;0.20;;;3.80;99.90;;;;;;5006825;28;20470;-73
2023/01/16 10:28:57;;;;;;;0.20;0.20;;;3.80;99.90;;;;;;4996393;28;20451;-74
2023/01/16 10:31:34;;;;;;;0.20;0.20;;;3.80;99.90;;;;;;4991905;28;20438;-72
2023/01/16 10:34:33;;;;;;;0.20;0.20;;;3.90;99.90;;;;;;5018630;28;20427;-71
2023/01/16 10:37:01;;;;;;;0.20;0.20;;;3.90;99.90;;;;;;5018558;28;20940;-74
2023/01/16 10:39:34;;;;;;;0.20;0.20;;;3.90;99.90;;;;;;5021168;28;20452;-71
2023/01/16 10:50:38;;;;;;;0.10;0.10;;;4.10;99.90;;;;;;5023521;28;20942;-72
2023/01/16 10:53:08;;;;;;;0.20;0.20;;;4.10;99.90;;;;;;5019228;28;20430;-73
2023/01/16 10:55:44;;;;;;;0.20;0.20;;;4.10;99.90;;;;;;5009775;28;20444;-72
2023/01/16 10:58:26;;;;;;;0.25;0.25;;;4.10;99.90;;;;;;5016145;28;21309;-72
2023/01/16 11:01:04;;;;;;;0.20;0.20;;;4.10;99.90;;;;;;5020410;28;20432;-72
2023/01/16 11:03:45;;;;;;;0.20;0.20;;;4.00;99.90;;;;;;5076782;28;20930;-72
2023/01/16 11:06:19;;;;;;;0.30;0.30;;;4.00;99.90;;;;;;5073610;28;20529;-72
2023/01/16 11:09:04;;;;;;;0.20;0.20;;;4.10;99.90;;;;;;5085550;28;20518;-72
2023/01/16 11:20:08;;;;;;;0.17;0.17;;;4.10;99.90;;;;;;5087605;28;20447;-72
2023/01/16 11:22:39;;;;;;;0.17;0.17;;;4.20;99.90;;;;;;5083555;28;20828;-71
2023/01/16 11:25:12;;;;;;;0.20;0.20;;;4.30;99.90;;;;;;5093571;28;20420;-72
2023/01/16 11:27:39;;;;;;;0.30;0.30;;;4.30;99.90;;;;;;5080305;28;20419;-71
2023/01/16 11:30:18;;;;;;;0.10;0.10;;;4.30;99.90;;;;;;5085778;28;20473;-72
2023/01/16 11:32:48;;;;;;;0.10;0.10;;;4.30;99.90;;;;;;5086590;28;20432;-72
2023/01/16 11:35:18;;;;;;;0.10;0.10;;;4.30;99.90;;;;;;5076934;28;20447;-72
2023/01/16 11:37:49;;;;;;;0.20;0.20;;;4.30;99.90;;;;;;5082101;28;20433;-72
2023/01/16 11:40:22;;;;;;;0.30;0.20;;;4.40;99.90;;;;;;5071677;28;20426;-71
2023/01/16 11:48:48;;;;;;;0.80;0.20;;;4.30;99.90;;;;;;5088436;28;20444;-72
2023/01/16 11:51:23;;;;;;;0.10;0.10;;;4.30;99.90;;;;;;5071315;28;20895;-71
2023/01/16 11:53:51;;;;;;;0.10;0.10;;;4.40;99.90;;;;;;5077805;28;20426;-71
2023/01/16 11:56:36;;;;;;;0.80;0.30;;;4.40;99.90;;;;;;5092241;28;20420;-73
2023/01/16 11:59:35;;;;;;;0.10;0.10;;;4.50;99.90;;;;;;5080494;28;21004;-72
2023/01/16 12:02:16;;;;;;;0.13;0.13;;;4.60;99.90;;;;;;5093697;28;20416;-71
2023/01/16 12:07:46;;;;;;;0.23;0.23;;;4.50;99.90;;;;;;5085914;28;20421;-71
2023/01/16 12:10:40;;;;;;;0.20;0.20;;;4.60;99.90;;;;;;5081421;28;20426;-72
2023/01/16 12:16:12;;;;;;;0.80;0.40;;;4.80;99.90;;;;;;5071349;28;20477;-72
2023/01/16 12:18:47;;;;;;;0.10;0.10;;;5.10;99.90;;;;;;5065254;28;20428;-72
2023/01/16 12:21:45;;;;;;;0.30;0.30;;;5.20;99.90;;;;;;5078995;28;20422;-73
2023/01/16 12:24:34;;;;;;;0.20;0.20;;;5.20;99.90;;;;;;5078994;28;20984;-72
2023/01/16 12:27:26;;;;;;;0.20;0.20;;;5.40;99.90;;;;;;5085402;28;20432;-72
2023/01/16 12:30:03;;;;;;;0.20;0.20;;;5.30;99.90;;;;;;5062411;28;20443;-72
2023/01/16 12:32:48;;;;;;;0.30;0.30;;;5.20;99.90;;;;;;5077362;28;21427;-72
2023/01/16 12:35:38;;;;;;;0.20;0.20;;;5.40;99.90;;;;;;5072435;28;20427;-72
2023/01/16 12:38:17;;;;;;;0.20;0.20;;;5.80;99.90;;;;;;5079514;28;20432;-72
2023/01/16 12:44:12;;;;;;;0.20;0.20;;;6.70;99.90;;;;;;5071479;28;20952;-72
2023/01/16 12:47:03;;;;;;;0.30;0.30;;;6.70;99.90;;;;;;5084293;28;20926;-72
2023/01/16 12:49:47;;;;;;;0.60;0.30;;;6.30;99.90;;;;;;5080941;28;20794;-72
2023/01/16 12:52:17;;;;;;;0.10;0.10;;;6.00;99.90;;;;;;5068348;28;20465;-73
2023/01/16 12:55:03;;;;;;;0.10;0.10;;;6.00;99.90;;;;;;5074635;28;20439;-72
2023/01/16 12:57:44;;;;;;;0.30;0.30;;;6.10;99.90;;;;;;5078741;28;20915;-72
2023/01/16 13:00:20;;;;;;;0.20;0.20;;;6.30;99.90;;;;;;5070052;28;20431;-71
2023/01/16 13:03:20;;;;;;;0.20;0.20;;;6.40;99.90;;;;;;5078344;28;20509;-72
2023/01/16 13:05:49;;;;;;;0.20;0.20;;;6.50;99.90;;;;;;5078977;28;20431;-73
2023/01/16 13:08:27;;;;;;;0.32;0.32;;;7.10;99.90;;;;;;5076690;28;20875;-73
2023/01/16 13:14:01;;;;;;;0.30;0.30;;;7.20;99.90;;;;;;5081767;28;20506;-72
2023/01/16 13:16:37;;;;;;;0.20;0.20;;;6.80;99.90;;;;;;5082565;28;20461;-72
2023/01/16 13:19:19;;;;;;;0.20;0.20;;;6.60;99.90;;;;;;5090401;28;20423;-72
2023/01/16 13:22:04;;;;;;;0.10;0.10;;;6.40;99.90;;;;;;5091737;28;20459;-72
2023/01/16 13:24:38;;;;;;;0.10;0.10;;;6.40;99.90;;;;;;5088077;28;20425;-72
2023/01/16 13:27:15;;;;;;;0.20;0.20;;;6.30;99.90;;;;;;5078782;28;20509;-72
2023/01/16 13:30:04;;;;;;;0.20;0.20;;;6.40;99.90;;;;;;5077908;28;20525;-72
2023/01/16 13:32:31;;;;;;;0.50;0.30;;;6.30;99.90;;;;;;5085399;28;20893;-71
2023/01/16 13:35:12;;;;;;;0.60;0.50;;;6.40;99.90;;;;;;5081613;28;20416;-72
2023/01/16 13:38:17;;;;;;;0.20;0.20;;;6.40;99.90;;;;;;5087624;28;20514;-71
2023/01/16 13:40:49;;;;;;;0.10;0.10;;;6.40;99.90;;;;;;5084952;28;20430;-71
2023/01/16 13:46:20;;;;;;;0.30;0.30;;;6.30;99.90;;;;;;5091510;28;20433;-71
2023/01/16 13:48:52;;;;;;;0.40;0.40;;;6.20;99.90;;;;;;5089428;28;20422;-72
2023/01/16 13:51:23;;;;;;;0.20;0.20;;;6.20;99.90;;;;;;5081617;28;20958;-72
2023/01/16 13:53:56;;;;;;;0.20;0.20;;;6.00;99.90;;;;;;5087469;28;20429;-71
2023/01/16 13:56:24;;;;;;;0.20;0.20;;;5.90;99.90;;;;;;5082417;28;20469;-72
2023/01/16 13:58:59;;;;;;;0.20;0.20;;;5.80;99.90;;;;;;5080816;28;20454;-71
2023/01/16 14:01:56;;;;;;;0.40;0.40;;;5.70;99.90;;;;;;5076214;28;20507;-71
2023/01/16 14:04:23;;;;;;;0.30;0.30;;;5.50;99.90;;;;;;5088017;28;20434;-71
2023/01/16 14:10:12;;;;;;;0.20;0.20;;;5.40;99.90;;;;;;5083875;28;20435;-72
2023/01/16 14:13:14;;;;;;;0.10;0.10;;;5.40;99.90;;;;;;5018359;28;20439;-71
2023/01/16 14:18:47;;;;;;;0.10;0.10;;;5.30;99.90;;;;;;5041574;28;20427;-71
2023/01/16 14:21:25;;;;;;;0.10;0.10;;;5.20;99.90;;;;;;5048056;28;20962;-72
2023/01/16 14:24:01;;;;;;;0.10;0.10;;;5.20;99.90;;;;;;5038801;28;20905;-72
2023/01/16 14:26:44;;;;;;;0.10;0.10;;;5.20;99.90;;;;;;5030252;28;20653;-71
2023/01/16 14:29:37;;;;;;;0.10;0.10;;;5.20;99.90;;;;;;5029615;28;20513;-71
2023/01/16 14:32:16;;;;;;;0.20;0.20;;;5.30;99.90;;;;;;5038764;28;20560;-71
2023/01/16 14:34:54;;;;;;;0.77;0.77;;;5.30;99.90;;;;;;5041333;28;20435;-71
2023/01/16 14:37:32;;;;;;;0.20;0.20;;;5.40;99.90;;;;;;5035611;28;21080;-71
2023/01/16 14:40:11;;;;;;;0.30;0.30;;;5.40;99.90;;;;;;5032868;28;20842;-72
2023/01/16 14:55:52;;;;;;;0.20;0.20;;;5.60;99.90;;;;;;5094070;28;20423;-72
2023/01/16 14:58:36;;;;;;;0.20;0.20;;;5.70;99.90;;;;;;5083297;28;20480;-72
2023/01/16 15:03:53;;;;;;;0.40;0.40;;;5.60;99.90;;;;;;5095316;28;20428;-72